Time;durP1;ratioP1;P1;durP2;ratioP2;P2;SDS_P1;SDS_P2;PMS_P1;PMS_P2;Temp;Humidity;BMP_temperature;BMP_pressure;BME280_temperature;BME280_humidity;BME280_pressure;Samples;Min_cycle;Max_cycle;Signal;HPM_P1;HPM_P2
2021/08/09 00:00:58;;;;;;;2.17;1.50;;;;;;;;;;5090608;28;20195;-61
2021/08/09 00:03:24;;;;;;;2.37;1.57;;;;;;;;;;5083243;28;20263;-61
2021/08/09 00:05:49;;;;;;;3.23;1.70;;;;;;;;;;5097925;28;20195;-60
2021/08/09 00:08:14;;;;;;;3.73;1.87;;;;;;;;;;5076203;28;20179;-61
2021/08/09 00:10:39;;;;;;;2.83;1.60;;;;;;;;;;5072980;28;20212;-62
2021/08/09 00:13:05;;;;;;;4.60;1.70;;;;;;;;;;5096999;28;20196;-60
2021/08/09 00:15:30;;;;;;;2.53;1.70;;;;;;;;;;5094990;27;20207;-61
2021/08/09 00:17:55;;;;;;;3.63;1.67;;;;;;;;;;5104433;28;20164;-61
2021/08/09 00:20:21;;;;;;;2.60;1.80;;;;;;;;;;5099244;28;20202;-60
2021/08/09 00:22:46;;;;;;;3.57;1.73;;;;;;;;;;5100401;28;20195;-61
2021/08/09 00:25:12;;;;;;;5.00;2.00;;;;;;;;;;5106965;28;20180;-61
2021/08/09 00:27:37;;;;;;;6.40;1.83;;;;;;;;;;5102335;27;20213;-60
2021/08/09 00:30:03;;;;;;;3.17;1.90;;;;;;;;;;5085404;28;20809;-61
2021/08/09 00:32:28;;;;;;;4.10;1.80;;;;;;;;;;5090303;28;20888;-61
2021/08/09 00:34:53;;;;;;;3.60;1.80;;;;;;;;;;5096727;28;20831;-61
2021/08/09 00:37:18;;;;;;;2.97;1.83;;;;;;;;;;5094627;28;20183;-60
2021/08/09 00:39:43;;;;;;;5.53;2.00;;;;;;;;;;5102075;28;20294;-60
2021/08/09 00:42:09;;;;;;;3.30;1.83;;;;;;;;;;5082365;28;20184;-61
2021/08/09 00:44:34;;;;;;;6.63;2.10;;;;;;;;;;5099734;28;20186;-60
2021/08/09 00:47:00;;;;;;;3.83;1.70;;;;;;;;;;5104370;28;20180;-61
2021/08/09 00:49:25;;;;;;;4.90;1.80;;;;;;;;;;5102668;28;20184;-60
2021/08/09 00:51:51;;;;;;;6.47;2.07;;;;;;;;;;5102414;28;20191;-61
2021/08/09 00:54:16;;;;;;;3.13;1.90;;;;;;;;;;5105812;28;20188;-61
2021/08/09 00:56:42;;;;;;;2.77;1.77;;;;;;;;;;5094570;28;20563;-60
2021/08/09 00:59:07;;;;;;;2.07;1.57;;;;;;;;;;5099225;28;20191;-61
2021/08/09 01:01:32;;;;;;;2.37;1.63;;;;;;;;;;5097737;28;21441;-61
2021/08/09 01:03:57;;;;;;;3.77;1.70;;;;;;;;;;5107572;28;20649;-61
2021/08/09 01:06:22;;;;;;;2.67;1.77;;;;;;;;;;5099860;28;20180;-61
2021/08/09 01:09:07;;;;;;;1.57;1.47;;;;;;;;;;5097126;28;20188;-60
2021/08/09 01:11:40;;;;;;;4.27;2.10;;;;;;;;;;5094412;28;20202;-61
2021/08/09 01:14:24;;;;;;;3.90;2.07;;;;;;;;;;5100279;28;20180;-59
2021/08/09 01:16:49;;;;;;;2.93;1.67;;;;;;;;;;5101323;28;20826;-63
2021/08/09 01:19:33;;;;;;;4.57;1.80;;;;;;;;;;5099068;27;20259;-61
2021/08/09 01:22:02;;;;;;;4.13;1.73;;;;;;;;;;5098660;28;20812;-61
2021/08/09 01:24:32;;;;;;;3.23;1.47;;;;;;;;;;5078894;28;20272;-60
2021/08/09 01:27:01;;;;;;;3.97;1.77;;;;;;;;;;5096873;27;20188;-61
2021/08/09 01:29:31;;;;;;;3.03;1.70;;;;;;;;;;5108675;27;20208;-61
2021/08/09 01:31:58;;;;;;;3.63;1.80;;;;;;;;;;5108213;28;20187;-60
2021/08/09 01:34:24;;;;;;;4.13;1.73;;;;;;;;;;5105560;28;20188;-60
2021/08/09 01:36:51;;;;;;;2.17;1.43;;;;;;;;;;5106194;28;20214;-61
2021/08/09 01:39:17;;;;;;;2.97;1.70;;;;;;;;;;5108111;27;20184;-62
2021/08/09 01:41:42;;;;;;;4.10;1.97;;;;;;;;;;5109809;28;20202;-60
2021/08/09 01:44:08;;;;;;;2.87;1.80;;;;;;;;;;5106650;28;20191;-59
2021/08/09 01:46:33;;;;;;;4.57;2.00;;;;;;;;;;5105970;28;20259;-59
2021/08/09 01:49:00;;;;;;;2.80;1.70;;;;;;;;;;5105830;27;20180;-61
2021/08/09 01:51:25;;;;;;;2.93;1.50;;;;;;;;;;5085803;28;20204;-60
2021/08/09 01:53:53;;;;;;;4.73;1.60;;;;;;;;;;5103034;28;20782;-61
2021/08/09 01:56:19;;;;;;;2.33;1.33;;;;;;;;;;5104257;28;20299;-63
2021/08/09 01:58:44;;;;;;;2.00;1.40;;;;;;;;;;5111534;27;20181;-61
2021/08/09 02:01:10;;;;;;;2.13;1.50;;;;;;;;;;5104744;28;20681;-62
2021/08/09 02:03:35;;;;;;;4.00;1.80;;;;;;;;;;5101273;28;20547;-62
2021/08/09 02:06:00;;;;;;;2.43;1.63;;;;;;;;;;5107069;28;20691;-60
2021/08/09 02:08:25;;;;;;;2.43;2.00;;;;;;;;;;5104773;27;20320;-62
2021/08/09 02:10:57;;;;;;;3.33;1.83;;;;;;;;;;5094336;28;20204;-60
2021/08/09 02:13:34;;;;;;;2.70;1.90;;;;;;;;;;5105635;27;20223;-60
2021/08/09 02:16:12;;;;;;;4.60;2.00;;;;;;;;;;5101518;27;20690;-61
2021/08/09 02:18:37;;;;;;;7.50;2.63;;;;;;;;;;5103645;28;20686;-62
2021/08/09 02:21:03;;;;;;;3.10;1.80;;;;;;;;;;5094108;28;20188;-59
2021/08/09 02:23:38;;;;;;;3.97;1.90;;;;;;;;;;5105874;28;20183;-61
2021/08/09 02:26:04;;;;;;;3.57;2.30;;;;;;;;;;5086067;28;20242;-61
2021/08/09 02:28:29;;;;;;;3.60;2.00;;;;;;;;;;5097945;27;20181;-62
2021/08/09 02:30:59;;;;;;;3.10;1.70;;;;;;;;;;5091018;28;20836;-60
2021/08/09 02:33:25;;;;;;;3.40;1.90;;;;;;;;;;5106791;28;20184;-60
2021/08/09 02:35:51;;;;;;;4.23;1.90;;;;;;;;;;5099651;28;20207;-62
2021/08/09 02:38:17;;;;;;;2.43;1.57;;;;;;;;;;5094644;28;20169;-61
2021/08/09 02:40:42;;;;;;;3.17;1.90;;;;;;;;;;5090557;28;20578;-61
2021/08/09 02:43:08;;;;;;;3.27;1.90;;;;;;;;;;5095131;28;20176;-60
2021/08/09 02:45:33;;;;;;;3.63;2.10;;;;;;;;;;5104776;28;20188;-61
2021/08/09 02:47:59;;;;;;;2.87;1.90;;;;;;;;;;5107301;28;20179;-60
2021/08/09 02:50:24;;;;;;;3.27;1.77;;;;;;;;;;5105327;28;20192;-60
2021/08/09 02:52:50;;;;;;;3.00;1.90;;;;;;;;;;5101347;28;20279;-62
2021/08/09 02:55:16;;;;;;;4.80;1.80;;;;;;;;;;5104091;28;20243;-61
2021/08/09 02:57:42;;;;;;;3.27;2.00;;;;;;;;;;5093785;27;20175;-60
2021/08/09 03:00:07;;;;;;;6.67;2.10;;;;;;;;;;5106619;27;20200;-61
2021/08/09 03:02:35;;;;;;;2.47;1.97;;;;;;;;;;5104600;28;20655;-61
2021/08/09 03:05:01;;;;;;;6.00;2.07;;;;;;;;;;5085914;28;20230;-59
2021/08/09 03:07:28;;;;;;;5.43;1.70;;;;;;;;;;5097718;28;20188;-61
2021/08/09 03:09:54;;;;;;;3.20;2.00;;;;;;;;;;5108135;28;20227;-62
2021/08/09 03:12:19;;;;;;;5.30;2.20;;;;;;;;;;5105377;28;20203;-61
2021/08/09 03:14:52;;;;;;;3.30;2.10;;;;;;;;;;5102398;28;20233;-62
2021/08/09 03:17:17;;;;;;;2.60;2.13;;;;;;;;;;5103725;27;20192;-61
2021/08/09 03:19:43;;;;;;;3.17;1.80;;;;;;;;;;5098899;28;20299;-61
2021/08/09 03:22:10;;;;;;;3.80;1.97;;;;;;;;;;5105393;28;20636;-61
2021/08/09 03:24:35;;;;;;;4.27;2.30;;;;;;;;;;5101093;28;20177;-61
2021/08/09 03:27:00;;;;;;;5.40;1.80;;;;;;;;;;5086247;28;20241;-61
2021/08/09 03:29:26;;;;;;;3.23;1.90;;;;;;;;;;5103550;27;20212;-61
2021/08/09 03:34:19;;;;;;;3.43;1.80;;;;;;;;;;5041296;28;20233;-61
2021/08/09 03:36:46;;;;;;;3.27;1.77;;;;;;;;;;5025957;28;20202;-62
2021/08/09 03:39:11;;;;;;;4.90;1.80;;;;;;;;;;5045185;28;20189;-61
2021/08/09 03:41:37;;;;;;;2.70;1.77;;;;;;;;;;5012576;28;20198;-61
2021/08/09 03:44:02;;;;;;;3.77;1.60;;;;;;;;;;5024445;28;20182;-59
2021/08/09 03:46:27;;;;;;;3.13;2.20;;;;;;;;;;5009446;28;20182;-61
2021/08/09 03:48:53;;;;;;;3.10;1.43;;;;;;;;;;5027056;28;20202;-60
2021/08/09 03:51:18;;;;;;;2.67;1.57;;;;;;;;;;5024486;28;20238;-61
2021/08/09 03:53:43;;;;;;;3.57;1.90;;;;;;;;;;5019044;28;20187;-61
2021/08/09 03:56:08;;;;;;;4.90;1.80;;;;;;;;;;5024932;28;20202;-61
2021/08/09 03:58:34;;;;;;;5.47;2.10;;;;;;;;;;5022181;28;20174;-61
2021/08/09 04:00:59;;;;;;;2.70;1.70;;;;;;;;;;5021966;28;20210;-61
2021/08/09 04:03:24;;;;;;;2.93;1.67;;;;;;;;;;5023596;28;20187;-62
2021/08/09 04:05:49;;;;;;;2.40;1.87;;;;;;;;;;5010251;28;20190;-61
2021/08/09 04:08:14;;;;;;;3.77;1.80;;;;;;;;;;5024136;28;20178;-59
2021/08/09 04:10:40;;;;;;;4.03;1.90;;;;;;;;;;5023971;28;20686;-61
2021/08/09 04:13:05;;;;;;;2.57;1.70;;;;;;;;;;5024609;28;20804;-60
2021/08/09 04:15:30;;;;;;;3.13;1.70;;;;;;;;;;5024810;28;20559;-60
2021/08/09 04:17:55;;;;;;;5.27;1.83;;;;;;;;;;5004493;28;20182;-61
2021/08/09 04:20:20;;;;;;;2.77;1.70;;;;;;;;;;5023797;28;20210;-61
2021/08/09 04:22:46;;;;;;;5.17;2.00;;;;;;;;;;5009313;28;20175;-61
2021/08/09 04:25:11;;;;;;;3.87;1.83;;;;;;;;;;5022732;28;20233;-61
2021/08/09 04:27:36;;;;;;;7.57;2.00;;;;;;;;;;4999467;28;20175;-61
2021/08/09 04:30:01;;;;;;;4.83;1.90;;;;;;;;;;5023398;28;20241;-61
2021/08/09 04:32:35;;;;;;;3.43;1.93;;;;;;;;;;5022738;28;20264;-61
2021/08/09 04:35:01;;;;;;;4.17;1.67;;;;;;;;;;5019669;28;20190;-61
2021/08/09 04:37:26;;;;;;;2.33;1.60;;;;;;;;;;5019057;28;20167;-61
2021/08/09 04:39:51;;;;;;;2.23;1.80;;;;;;;;;;5013273;28;20214;-61
2021/08/09 04:42:16;;;;;;;4.83;1.73;;;;;;;;;;5018353;28;20202;-61
2021/08/09 04:44:41;;;;;;;4.67;2.03;;;;;;;;;;5011736;28;20206;-60
2021/08/09 04:47:07;;;;;;;4.53;2.00;;;;;;;;;;5006229;28;20191;-60
2021/08/09 04:49:32;;;;;;;2.00;1.70;;;;;;;;;;5021477;28;20575;-60
2021/08/09 04:51:57;;;;;;;2.73;1.77;;;;;;;;;;5024669;28;20213;-61
2021/08/09 04:54:22;;;;;;;3.50;1.80;;;;;;;;;;5022625;28;20198;-60
2021/08/09 04:56:47;;;;;;;3.10;1.80;;;;;;;;;;5024479;28;20225;-59
2021/08/09 04:59:13;;;;;;;2.20;1.53;;;;;;;;;;5020876;28;20190;-62
2021/08/09 05:01:38;;;;;;;2.90;1.73;;;;;;;;;;5007845;28;20281;-62
2021/08/09 05:04:03;;;;;;;3.80;2.00;;;;;;;;;;5022776;28;20566;-61
2021/08/09 05:06:31;;;;;;;2.90;1.70;;;;;;;;;;5010745;28;20179;-61
2021/08/09 05:08:57;;;;;;;2.87;2.00;;;;;;;;;;5005902;28;20183;-60
2021/08/09 05:11:22;;;;;;;1.83;1.53;;;;;;;;;;5017119;28;20206;-61
2021/08/09 05:13:47;;;;;;;2.83;1.70;;;;;;;;;;5016954;28;20182;-61
2021/08/09 05:16:12;;;;;;;4.50;2.10;;;;;;;;;;5011838;28;20214;-61
2021/08/09 05:18:38;;;;;;;4.63;1.80;;;;;;;;;;5015174;28;20603;-60
2021/08/09 05:21:03;;;;;;;3.90;1.90;;;;;;;;;;5003326;28;20245;-61
2021/08/09 05:23:28;;;;;;;4.07;1.73;;;;;;;;;;5016476;28;20278;-61
2021/08/09 05:25:53;;;;;;;2.13;1.70;;;;;;;;;;5018451;28;20174;-59
2021/08/09 05:28:19;;;;;;;1.90;1.70;;;;;;;;;;4996550;28;20183;-59
2021/08/09 05:30:46;;;;;;;3.17;1.77;;;;;;;;;;5019592;28;20215;-59
2021/08/09 05:33:11;;;;;;;3.60;1.90;;;;;;;;;;5017874;28;20198;-58
2021/08/09 05:35:37;;;;;;;4.40;1.80;;;;;;;;;;5013659;28;20209;-59
2021/08/09 05:38:02;;;;;;;4.47;1.73;;;;;;;;;;5018833;28;20190;-60
2021/08/09 05:40:28;;;;;;;2.10;1.63;;;;;;;;;;5006701;28;20202;-59
2021/08/09 05:42:54;;;;;;;3.90;1.80;;;;;;;;;;5026016;28;20214;-59
2021/08/09 05:45:19;;;;;;;3.93;1.60;;;;;;;;;;5006635;28;20713;-58
2021/08/09 05:47:44;;;;;;;6.80;1.75;;;;;;;;;;5021720;28;20194;-60
2021/08/09 05:50:10;;;;;;;3.17;1.73;;;;;;;;;;5005881;28;20190;-60
2021/08/09 05:52:36;;;;;;;4.30;1.90;;;;;;;;;;5011620;28;20215;-58
2021/08/09 05:55:02;;;;;;;3.95;1.90;;;;;;;;;;5017971;28;20607;-60
2021/08/09 05:57:28;;;;;;;4.50;1.90;;;;;;;;;;5024419;28;20212;-61
2021/08/09 05:59:53;;;;;;;3.17;1.75;;;;;;;;;;5005163;28;20345;-59
2021/08/09 06:02:18;;;;;;;3.85;1.95;;;;;;;;;;5015515;28;20196;-59
2021/08/09 06:04:44;;;;;;;5.35;1.60;;;;;;;;;;5023034;28;20179;-59
2021/08/09 06:07:13;;;;;;;3.17;1.73;;;;;;;;;;5010502;28;20597;-59
2021/08/09 06:09:38;;;;;;;3.08;1.77;;;;;;;;;;5027585;28;20166;-58
2021/08/09 06:12:03;;;;;;;3.40;1.60;;;;;;;;;;5021000;28;20726;-58
2021/08/09 06:14:29;;;;;;;1.88;1.50;;;;;;;;;;5018800;28;20238;-58
2021/08/09 06:16:54;;;;;;;3.80;1.40;;;;;;;;;;5010608;28;20207;-58
2021/08/09 06:19:20;;;;;;;5.95;1.73;;;;;;;;;;5023149;28;20174;-60
2021/08/09 06:21:45;;;;;;;4.32;1.60;;;;;;;;;;5020015;28;20230;-61
2021/08/09 06:24:10;;;;;;;4.68;1.73;;;;;;;;;;5007303;28;20183;-59
2021/08/09 06:26:36;;;;;;;3.03;1.50;;;;;;;;;;5023711;28;20671;-58
2021/08/09 06:29:01;;;;;;;4.40;1.50;;;;;;;;;;5020926;28;20237;-59
2021/08/09 06:31:26;;;;;;;3.08;1.40;;;;;;;;;;5012272;28;21070;-60
2021/08/09 06:33:51;;;;;;;1.75;1.60;;;;;;;;;;5015543;28;20195;-59
2021/08/09 06:36:16;;;;;;;2.55;1.40;;;;;;;;;;5016954;28;20252;-60
2021/08/09 06:38:42;;;;;;;2.78;1.23;;;;;;;;;;5012132;28;21034;-60
2021/08/09 06:41:07;;;;;;;1.90;1.40;;;;;;;;;;5012150;28;20664;-60
2021/08/09 06:43:32;;;;;;;5.22;1.40;;;;;;;;;;5014266;28;20725;-59
2021/08/09 06:45:57;;;;;;;3.67;1.75;;;;;;;;;;5014595;28;20214;-62
2021/08/09 06:48:22;;;;;;;2.47;1.55;;;;;;;;;;5004171;28;20654;-60
2021/08/09 06:50:48;;;;;;;3.30;1.30;;;;;;;;;;5012725;28;20202;-59
2021/08/09 06:53:13;;;;;;;2.53;1.10;;;;;;;;;;5015807;28;20187;-60
2021/08/09 06:55:38;;;;;;;3.92;1.40;;;;;;;;;;5012797;28;20206;-60
2021/08/09 06:58:03;;;;;;;3.85;1.35;;;;;;;;;;5013567;28;20992;-59
2021/08/09 07:00:28;;;;;;;2.92;1.40;;;;;;;;;;5012304;28;20680;-60
2021/08/09 07:02:54;;;;;;;4.60;1.77;;;;;;;;;;5014750;28;20183;-60
2021/08/09 07:05:19;;;;;;;1.90;1.25;;;;;;;;;;5014128;28;20207;-59
2021/08/09 07:07:44;;;;;;;3.10;1.40;;;;;;;;;;5013099;28;20211;-60
2021/08/09 07:10:10;;;;;;;2.90;1.45;;;;;;;;;;5010821;28;20186;-61
2021/08/09 07:12:35;;;;;;;2.58;1.17;;;;;;;;;;5010091;28;20694;-60
2021/08/09 07:15:00;;;;;;;2.95;1.20;;;;;;;;;;5013892;28;20565;-60
2021/08/09 07:17:25;;;;;;;2.80;1.50;;;;;;;;;;5016627;28;20237;-61
2021/08/09 07:19:51;;;;;;;3.00;1.13;;;;;;;;;;5014779;28;20426;-60
2021/08/09 07:22:16;;;;;;;2.10;1.70;;;;;;;;;;5003829;28;20278;-61
2021/08/09 07:24:41;;;;;;;1.25;1.10;;;;;;;;;;5014571;28;20433;-58
2021/08/09 07:27:07;;;;;;;1.67;1.25;;;;;;;;;;5006290;28;20919;-59
2021/08/09 07:29:32;;;;;;;2.72;1.20;;;;;;;;;;5013480;28;20608;-59
2021/08/09 07:31:57;;;;;;;1.75;1.23;;;;;;;;;;5016115;28;20250;-60
2021/08/09 07:34:22;;;;;;;1.85;1.20;;;;;;;;;;5015669;28;20206;-59
2021/08/09 07:36:48;;;;;;;2.22;1.35;;;;;;;;;;5009061;28;20286;-61
2021/08/09 07:39:13;;;;;;;1.90;1.40;;;;;;;;;;5016426;28;20194;-61
2021/08/09 07:41:38;;;;;;;3.20;1.75;;;;;;;;;;5013315;28;20242;-61
2021/08/09 07:44:03;;;;;;;1.98;1.20;;;;;;;;;;5013428;28;20178;-60
2021/08/09 07:46:28;;;;;;;1.77;1.13;;;;;;;;;;5016014;28;20625;-60
2021/08/09 07:48:54;;;;;;;2.75;1.25;;;;;;;;;;5016552;28;20673;-59
2021/08/09 07:51:19;;;;;;;1.25;1.10;;;;;;;;;;5019036;28;20206;-60
2021/08/09 07:53:44;;;;;;;1.95;1.20;;;;;;;;;;5020944;28;20190;-60
2021/08/09 07:56:09;;;;;;;1.90;1.25;;;;;;;;;;5017105;28;20202;-58
2021/08/09 07:58:35;;;;;;;2.40;1.40;;;;;;;;;;5018653;28;20663;-59
2021/08/09 08:01:00;;;;;;;3.63;1.60;;;;;;;;;;5015104;28;20871;-60
2021/08/09 08:03:25;;;;;;;3.50;1.53;;;;;;;;;;5022201;28;20455;-59
2021/08/09 08:05:50;;;;;;;1.98;1.17;;;;;;;;;;5015256;28;20830;-60
2021/08/09 08:08:15;;;;;;;2.22;1.20;;;;;;;;;;5016303;28;20194;-60
2021/08/09 08:10:41;;;;;;;2.63;1.33;;;;;;;;;;5014365;28;20214;-60
2021/08/09 08:13:06;;;;;;;5.10;1.58;;;;;;;;;;5006237;28;20179;-59
2021/08/09 08:15:31;;;;;;;3.60;1.70;;;;;;;;;;5015930;28;20577;-60
2021/08/09 08:17:56;;;;;;;2.58;1.65;;;;;;;;;;5016394;28;20526;-59
2021/08/09 08:20:22;;;;;;;1.77;1.40;;;;;;;;;;5005288;28;20618;-59
2021/08/09 08:22:47;;;;;;;5.85;1.40;;;;;;;;;;5017563;28;20514;-59
2021/08/09 08:25:12;;;;;;;2.58;1.50;;;;;;;;;;5013449;28;20222;-59
2021/08/09 08:27:37;;;;;;;2.92;1.13;;;;;;;;;;5014001;28;20185;-59
2021/08/09 08:30:03;;;;;;;2.70;1.30;;;;;;;;;;5014659;28;20258;-59
2021/08/09 08:32:28;;;;;;;3.28;1.67;;;;;;;;;;5015709;28;20479;-60
2021/08/09 08:34:54;;;;;;;2.28;1.20;;;;;;;;;;5016167;28;20189;-61
2021/08/09 08:37:19;;;;;;;2.70;1.37;;;;;;;;;;5015228;28;20248;-59
2021/08/09 08:39:44;;;;;;;5.22;1.40;;;;;;;;;;5022161;28;21378;-60
2021/08/09 08:42:13;;;;;;;3.30;1.50;;;;;;;;;;5014378;28;20306;-60
2021/08/09 08:44:38;;;;;;;2.53;1.70;;;;;;;;;;5007698;28;20229;-60
2021/08/09 08:47:03;;;;;;;2.42;1.33;;;;;;;;;;5020983;28;20190;-58
2021/08/09 08:49:29;;;;;;;2.45;1.30;;;;;;;;;;5011308;28;20186;-59
2021/08/09 08:51:54;;;;;;;4.55;1.50;;;;;;;;;;5024472;28;20233;-58
2021/08/09 08:54:19;;;;;;;2.78;1.33;;;;;;;;;;5005159;28;20740;-59
2021/08/09 08:56:45;;;;;;;2.28;1.40;;;;;;;;;;5019283;28;20226;-59
2021/08/09 08:59:15;;;;;;;3.22;1.42;;;;;;;;;;5021192;28;20190;-60
2021/08/09 09:01:42;;;;;;;2.22;1.30;;;;;;;;;;5020992;28;20206;-59
2021/08/09 09:04:26;;;;;;;3.25;1.35;;;;;;;;;;5018610;28;20210;-59
2021/08/09 09:07:00;;;;;;;3.22;1.50;;;;;;;;;;5018968;28;21836;-59
2021/08/09 09:09:25;;;;;;;4.43;1.73;;;;;;;;;;5020987;28;20182;-58
2021/08/09 09:11:50;;;;;;;2.45;1.63;;;;;;;;;;5020181;28;20797;-58
2021/08/09 09:14:31;;;;;;;1.65;1.13;;;;;;;;;;5017916;28;20187;-59
2021/08/09 09:16:57;;;;;;;6.05;1.67;;;;;;;;;;5022301;28;20210;-58
2021/08/09 09:19:30;;;;;;;3.90;1.67;;;;;;;;;;5006086;28;20232;-58
2021/08/09 09:21:55;;;;;;;4.15;1.90;;;;;;;;;;5018722;28;20202;-59
2021/08/09 09:24:21;;;;;;;2.33;1.50;;;;;;;;;;5020574;28;20586;-58
2021/08/09 09:26:57;;;;;;;3.33;1.58;;;;;;;;;;5010035;28;20282;-58
2021/08/09 09:29:23;;;;;;;3.72;1.70;;;;;;;;;;5018137;28;20891;-58
2021/08/09 09:31:49;;;;;;;5.63;1.58;;;;;;;;;;5014324;28;20234;-59
2021/08/09 09:34:15;;;;;;;2.42;1.30;;;;;;;;;;5017286;28;20201;-58
2021/08/09 09:36:44;;;;;;;4.15;1.50;;;;;;;;;;5020932;28;20737;-59
2021/08/09 09:39:24;;;;;;;2.10;1.30;;;;;;;;;;5017357;28;20202;-60
2021/08/09 09:41:50;;;;;;;5.32;1.50;;;;;;;;;;5009770;28;20195;-58
2021/08/09 09:44:22;;;;;;;2.75;1.48;;;;;;;;;;5009280;28;20773;-59
2021/08/09 09:46:47;;;;;;;2.97;1.50;;;;;;;;;;5017868;28;20199;-59
2021/08/09 09:49:30;;;;;;;2.72;1.48;;;;;;;;;;5023924;28;20256;-60
2021/08/09 09:51:55;;;;;;;4.78;1.60;;;;;;;;;;5025062;28;20205;-59
2021/08/09 09:54:22;;;;;;;6.67;1.50;;;;;;;;;;5007292;28;20274;-59
2021/08/09 09:56:47;;;;;;;1.70;1.23;;;;;;;;;;5023653;28;21032;-57
2021/08/09 09:59:13;;;;;;;3.60;1.50;;;;;;;;;;5024980;28;20191;-59
2021/08/09 10:01:38;;;;;;;5.65;1.98;;;;;;;;;;5023884;28;20205;-58
2021/08/09 10:04:03;;;;;;;2.67;1.48;;;;;;;;;;5022047;28;20215;-58
2021/08/09 10:06:29;;;;;;;3.42;1.48;;;;;;;;;;5020193;28;20179;-59
2021/08/09 10:08:54;;;;;;;3.63;1.58;;;;;;;;;;5022995;28;20187;-62
2021/08/09 10:11:20;;;;;;;2.65;1.55;;;;;;;;;;5003804;28;20265;-57
2021/08/09 10:13:45;;;;;;;3.88;1.48;;;;;;;;;;5022581;28;20612;-58
2021/08/09 10:16:11;;;;;;;3.33;1.42;;;;;;;;;;5026299;28;20242;-58
2021/08/09 10:18:39;;;;;;;3.58;1.50;;;;;;;;;;5023008;28;20372;-59
2021/08/09 10:21:05;;;;;;;5.95;1.30;;;;;;;;;;5003359;28;20230;-58
2021/08/09 10:23:33;;;;;;;5.50;1.60;;;;;;;;;;5024159;28;20210;-59
2021/08/09 10:25:58;;;;;;;2.10;1.48;;;;;;;;;;5019881;28;20171;-60
2021/08/09 10:28:43;;;;;;;5.35;1.58;;;;;;;;;;5019376;28;20191;-58
2021/08/09 10:31:30;;;;;;;4.13;1.42;;;;;;;;;;5008381;28;20299;-59
2021/08/09 10:33:55;;;;;;;4.32;1.58;;;;;;;;;;5011469;28;20210;-59
2021/08/09 10:36:21;;;;;;;4.88;1.85;;;;;;;;;;5026550;28;20204;-59
2021/08/09 10:38:47;;;;;;;7.97;1.38;;;;;;;;;;5024957;28;20190;-59
2021/08/09 10:41:15;;;;;;;3.00;1.42;;;;;;;;;;4989841;28;20203;-57
2021/08/09 10:43:59;;;;;;;3.00;1.60;;;;;;;;;;5026131;28;20183;-58
2021/08/09 10:46:35;;;;;;;8.05;1.50;;;;;;;;;;5018340;28;20183;-59
2021/08/09 10:49:01;;;;;;;4.65;1.50;;;;;;;;;;5015456;28;20170;-58
2021/08/09 10:51:45;;;;;;;2.92;1.48;;;;;;;;;;5024573;28;20214;-57
2021/08/09 10:54:29;;;;;;;3.90;1.83;;;;;;;;;;5022570;28;20193;-57
2021/08/09 10:56:55;;;;;;;2.92;1.50;;;;;;;;;;5025997;28;20695;-57
2021/08/09 10:59:39;;;;;;;2.78;1.50;;;;;;;;;;5025893;28;20237;-58
2021/08/09 11:02:05;;;;;;;1.73;1.10;;;;;;;;;;5017908;28;20682;-58
2021/08/09 11:04:30;;;;;;;2.17;1.40;;;;;;;;;;5019255;28;20193;-57
2021/08/09 11:06:56;;;;;;;2.75;1.40;;;;;;;;;;5026613;28;20189;-57
2021/08/09 11:09:35;;;;;;;2.63;1.40;;;;;;;;;;5024505;28;20193;-58
2021/08/09 11:12:09;;;;;;;2.60;1.52;;;;;;;;;;5019081;28;20734;-57
2021/08/09 11:14:53;;;;;;;2.28;1.45;;;;;;;;;;5028024;28;20193;-55
2021/08/09 11:17:19;;;;;;;6.90;1.55;;;;;;;;;;5009109;28;20202;-58
2021/08/09 11:19:44;;;;;;;2.88;1.30;;;;;;;;;;5022683;28;20208;-58
2021/08/09 11:22:09;;;;;;;2.05;1.27;;;;;;;;;;5020391;28;20694;-58
2021/08/09 11:24:35;;;;;;;1.80;1.20;;;;;;;;;;5021148;28;20189;-57
2021/08/09 11:27:04;;;;;;;3.58;1.38;;;;;;;;;;4998256;28;20196;-58
2021/08/09 11:29:49;;;;;;;5.03;1.40;;;;;;;;;;5011188;28;20190;-57
2021/08/09 11:32:14;;;;;;;2.30;1.38;;;;;;;;;;5021477;28;20348;-57
2021/08/09 11:34:58;;;;;;;2.42;1.20;;;;;;;;;;5015026;28;20726;-59
2021/08/09 11:37:23;;;;;;;2.13;1.10;;;;;;;;;;5023742;28;20356;-56
2021/08/09 11:39:48;;;;;;;3.05;1.60;;;;;;;;;;5022426;28;20269;-57
2021/08/09 11:42:14;;;;;;;3.13;1.50;;;;;;;;;;5016145;28;20374;-56
2021/08/09 11:44:39;;;;;;;3.60;1.38;;;;;;;;;;5013699;28;20658;-57
2021/08/09 11:47:05;;;;;;;1.48;1.38;;;;;;;;;;5022395;28;20198;-58
2021/08/09 11:49:30;;;;;;;4.35;1.10;;;;;;;;;;5022488;28;20175;-58
2021/08/09 11:51:59;;;;;;;3.63;1.40;;;;;;;;;;5007292;28;20214;-57
2021/08/09 11:54:36;;;;;;;2.65;1.38;;;;;;;;;;5017481;28;20207;-56
2021/08/09 11:57:01;;;;;;;5.57;1.50;;;;;;;;;;5020310;28;20946;-57
2021/08/09 11:59:27;;;;;;;6.65;1.38;;;;;;;;;;5005430;28;20198;-58
2021/08/09 12:02:04;;;;;;;2.67;1.30;;;;;;;;;;5022378;28;20281;-60
2021/08/09 12:04:40;;;;;;;2.22;1.10;;;;;;;;;;5022088;28;20252;-57
2021/08/09 12:07:15;;;;;;;2.83;1.20;;;;;;;;;;5021787;28;20251;-58
2021/08/09 12:09:41;;;;;;;2.70;1.40;;;;;;;;;;5021987;28;20286;-58
2021/08/09 12:12:14;;;;;;;4.10;1.33;;;;;;;;;;5000730;28;20298;-58
2021/08/09 12:14:39;;;;;;;2.70;1.63;;;;;;;;;;5046013;23;20252;-59
2021/08/09 12:17:15;;;;;;;2.63;1.17;;;;;;;;;;5061238;28;20276;-58
2021/08/09 12:19:45;;;;;;;3.75;1.33;;;;;;;;;;5062283;28;20181;-57
2021/08/09 12:22:10;;;;;;;2.28;1.23;;;;;;;;;;5054272;28;20176;-58
2021/08/09 12:24:35;;;;;;;2.50;1.02;;;;;;;;;;5046997;28;20194;-58
2021/08/09 12:27:13;;;;;;;3.20;1.40;;;;;;;;;;5021781;28;20182;-59
2021/08/09 12:29:38;;;;;;;1.60;1.05;;;;;;;;;;5037227;28;20204;-58
2021/08/09 12:32:13;;;;;;;3.70;1.10;;;;;;;;;;5026067;28;20802;-58
2021/08/09 12:34:42;;;;;;;2.70;1.33;;;;;;;;;;5035396;28;20601;-58
2021/08/09 12:37:11;;;;;;;3.78;1.35;;;;;;;;;;5031360;28;20220;-58
2021/08/09 12:39:36;;;;;;;2.95;1.25;;;;;;;;;;5037574;28;20174;-58
2021/08/09 12:42:14;;;;;;;3.70;1.15;;;;;;;;;;5035655;28;20200;-58
2021/08/09 12:44:40;;;;;;;4.53;1.63;;;;;;;;;;5037051;28;20209;-57
2021/08/09 12:47:05;;;;;;;1.63;1.20;;;;;;;;;;5029941;28;20190;-58
2021/08/09 12:49:30;;;;;;;2.28;1.00;;;;;;;;;;5042400;28;20186;-58
2021/08/09 12:51:55;;;;;;;2.28;1.10;;;;;;;;;;5034933;28;20198;-58
2021/08/09 12:54:20;;;;;;;3.13;1.10;;;;;;;;;;5040926;28;20206;-57
2021/08/09 12:56:46;;;;;;;3.67;1.33;;;;;;;;;;5036495;28;20324;-59
2021/08/09 12:59:13;;;;;;;2.20;1.13;;;;;;;;;;5041815;28;20417;-58
2021/08/09 13:01:38;;;;;;;5.70;1.08;;;;;;;;;;5036769;28;20901;-57
2021/08/09 13:04:03;;;;;;;6.50;1.10;;;;;;;;;;5035489;28;20206;-57
2021/08/09 13:06:30;;;;;;;2.45;1.10;;;;;;;;;;5037714;28;20468;-58
2021/08/09 13:08:55;;;;;;;2.78;1.15;;;;;;;;;;5042766;28;20625;-57
2021/08/09 13:11:20;;;;;;;3.25;1.15;;;;;;;;;;5037249;28;20221;-57
2021/08/09 13:13:45;;;;;;;2.67;1.27;;;;;;;;;;5015680;28;20208;-57
2021/08/09 13:16:11;;;;;;;2.67;1.00;;;;;;;;;;5042746;28;21136;-58
2021/08/09 13:18:36;;;;;;;2.70;1.20;;;;;;;;;;5035334;28;20538;-56
2021/08/09 13:21:01;;;;;;;2.38;1.25;;;;;;;;;;5037076;28;20698;-55
2021/08/09 13:23:27;;;;;;;1.50;1.13;;;;;;;;;;5036423;28;20183;-57
2021/08/09 13:25:52;;;;;;;5.95;1.38;;;;;;;;;;5045677;28;20277;-57
2021/08/09 13:28:17;;;;;;;4.38;1.20;;;;;;;;;;5041492;28;20186;-57
2021/08/09 13:30:42;;;;;;;1.27;1.10;;;;;;;;;;5024551;28;20198;-57
2021/08/09 13:33:08;;;;;;;10.05;1.20;;;;;;;;;;5041125;28;20201;-56
2021/08/09 13:35:33;;;;;;;2.92;1.05;;;;;;;;;;5045948;28;20213;-57
2021/08/09 13:37:59;;;;;;;5.43;1.42;;;;;;;;;;5044943;28;20186;-54
2021/08/09 13:40:25;;;;;;;3.58;1.52;;;;;;;;;;5037701;28;20189;-56
2021/08/09 13:42:55;;;;;;;5.03;1.37;;;;;;;;;;5033409;28;20179;-58
2021/08/09 13:45:21;;;;;;;2.83;1.30;;;;;;;;;;5042894;28;20432;-56
2021/08/09 13:47:47;;;;;;;3.47;1.20;;;;;;;;;;5028983;28;20244;-56
2021/08/09 13:50:12;;;;;;;2.55;1.45;;;;;;;;;;5046977;28;20248;-56
2021/08/09 13:52:37;;;;;;;2.65;1.33;;;;;;;;;;5042863;28;20174;-57
2021/08/09 13:55:03;;;;;;;2.15;1.20;;;;;;;;;;5027148;28;20744;-57
2021/08/09 13:57:28;;;;;;;3.45;1.40;;;;;;;;;;5041703;28;20204;-57
2021/08/09 13:59:53;;;;;;;1.87;1.30;;;;;;;;;;5030539;28;20683;-57
2021/08/09 14:02:18;;;;;;;6.50;1.48;;;;;;;;;;5029993;28;20435;-57
2021/08/09 14:04:43;;;;;;;3.05;1.40;;;;;;;;;;5046632;28;20987;-56
2021/08/09 14:07:09;;;;;;;3.83;1.45;;;;;;;;;;5034855;28;20477;-56
2021/08/09 14:09:34;;;;;;;2.08;1.30;;;;;;;;;;5041942;28;20260;-56
2021/08/09 14:11:59;;;;;;;2.17;1.48;;;;;;;;;;5034722;28;20205;-57
2021/08/09 14:14:24;;;;;;;3.13;1.50;;;;;;;;;;5045452;28;20221;-57
2021/08/09 14:16:49;;;;;;;25.58;2.47;;;;;;;;;;5043840;28;20236;-56
2021/08/09 14:19:15;;;;;;;3.65;1.60;;;;;;;;;;5042037;28;20603;-56
2021/08/09 14:21:40;;;;;;;6.70;1.48;;;;;;;;;;5043273;28;20216;-56
2021/08/09 14:24:06;;;;;;;3.55;1.50;;;;;;;;;;5042974;28;20608;-56
2021/08/09 14:26:31;;;;;;;3.58;1.25;;;;;;;;;;5041357;28;20190;-55
2021/08/09 14:29:00;;;;;;;3.47;1.23;;;;;;;;;;5032346;28;20688;-56
2021/08/09 14:31:26;;;;;;;2.50;1.40;;;;;;;;;;5026231;28;20182;-56
2021/08/09 14:33:51;;;;;;;2.88;1.40;;;;;;;;;;5045202;28;20331;-55
2021/08/09 14:36:16;;;;;;;2.30;1.23;;;;;;;;;;5026936;28;20213;-55
2021/08/09 14:38:41;;;;;;;2.72;1.20;;;;;;;;;;5022407;28;20217;-56
2021/08/09 14:41:06;;;;;;;4.60;1.60;;;;;;;;;;5025033;28;20268;-55
2021/08/09 14:43:34;;;;;;;1.95;1.13;;;;;;;;;;5045887;28;20316;-56